sensor_id;sensor_type;location;lat;lon;timestamp;P1;durP1;ratioP1;P2;durP2;ratioP2
68938;SDS011;59064;45.294;11.816;2022-09-09T00:01:59;45.50;;;24.80;;
68938;SDS011;59064;45.294;11.816;2022-09-09T00:04:31;45.20;;;24.70;;
68938;SDS011;59064;45.294;11.816;2022-09-09T00:09:49;34.10;;;18.50;;
68938;SDS011;59064;45.294;11.816;2022-09-09T00:12:24;34.60;;;19.80;;
68938;SDS011;59064;45.294;11.816;2022-09-09T00:14:56;29.90;;;16.80;;
68938;SDS011;59064;45.294;11.816;2022-09-09T00:17:38;34.50;;;19.40;;
68938;SDS011;59064;45.294;11.816;2022-09-09T00:23:20;64.30;;;34.40;;
68938;SDS011;59064;45.294;11.816;2022-09-09T00:29:14;42.70;;;23.20;;
68938;SDS011;59064;45.294;11.816;2022-09-09T00:31:54;41.50;;;21.70;;
68938;SDS011;59064;45.294;11.816;2022-09-09T00:34:25;48.40;;;25.40;;
68938;SDS011;59064;45.294;11.816;2022-09-09T00:36:53;46.00;;;24.40;;
68938;SDS011;59064;45.294;11.816;2022-09-09T00:39:27;49.50;;;24.40;;
68938;SDS011;59064;45.294;11.816;2022-09-09T00:47:46;37.80;;;17.60;;
68938;SDS011;59064;45.294;11.816;2022-09-09T00:58:42;13.80;;;6.70;;
68938;SDS011;59064;45.294;11.816;2022-09-09T01:01:12;11.80;;;6.80;;
68938;SDS011;59064;45.294;11.816;2022-09-09T01:03:56;12.10;;;5.90;;
68938;SDS011;59064;45.294;11.816;2022-09-09T01:09:07;11.20;;;5.90;;
68938;SDS011;59064;45.294;11.816;2022-09-09T01:12:15;10.60;;;6.00;;
68938;SDS011;59064;45.294;11.816;2022-09-09T01:14:47;10.60;;;6.30;;
68938;SDS011;59064;45.294;11.816;2022-09-09T01:17:20;10.70;;;6.00;;
68938;SDS011;59064;45.294;11.816;2022-09-09T01:22:35;12.10;;;6.30;;
68938;SDS011;59064;45.294;11.816;2022-09-09T01:27:55;13.00;;;6.90;;
68938;SDS011;59064;45.294;11.816;2022-09-09T01:30:24;13.30;;;6.00;;
68938;SDS011;59064;45.294;11.816;2022-09-09T01:32:54;13.80;;;6.90;;
68938;SDS011;59064;45.294;11.816;2022-09-09T01:38:21;10.30;;;5.40;;
68938;SDS011;59064;45.294;11.816;2022-09-09T01:40:48;13.00;;;5.70;;
68938;SDS011;59064;45.294;11.816;2022-09-09T01:43:20;10.90;;;5.30;;
68938;SDS011;59064;45.294;11.816;2022-09-09T01:45:49;11.80;;;6.20;;
68938;SDS011;59064;45.294;11.816;2022-09-09T01:48:18;10.00;;;6.20;;
68938;SDS011;59064;45.294;11.816;2022-09-09T01:50:44;10.00;;;6.20;;
68938;SDS011;59064;45.294;11.816;2022-09-09T01:53:10;12.50;;;6.00;;
68938;SDS011;59064;45.294;11.816;2022-09-09T01:55:40;13.10;;;6.20;;
68938;SDS011;59064;45.294;11.816;2022-09-09T02:06:58;10.70;;;7.10;;
68938;SDS011;59064;45.294;11.816;2022-09-09T02:09:25;10.80;;;6.60;;
68938;SDS011;59064;45.294;11.816;2022-09-09T02:12:01;11.50;;;6.50;;
68938;SDS011;59064;45.294;11.816;2022-09-09T02:14:39;11.30;;;6.40;;
68938;SDS011;59064;45.294;11.816;2022-09-09T02:17:12;12.00;;;7.30;;
68938;SDS011;59064;45.294;11.816;2022-09-09T02:19:49;10.90;;;7.20;;
68938;SDS011;59064;45.294;11.816;2022-09-09T02:22:22;9.90;;;6.60;;
68938;SDS011;59064;45.294;11.816;2022-09-09T02:24:51;14.70;;;8.10;;
68938;SDS011;59064;45.294;11.816;2022-09-09T02:27:21;14.70;;;8.00;;
68938;SDS011;59064;45.294;11.816;2022-09-09T02:29:48;12.70;;;6.50;;
68938;SDS011;59064;45.294;11.816;2022-09-09T02:32:17;12.30;;;7.40;;
68938;SDS011;59064;45.294;11.816;2022-09-09T02:34:52;12.00;;;7.40;;
68938;SDS011;59064;45.294;11.816;2022-09-09T02:37:24;11.40;;;8.00;;
68938;SDS011;59064;45.294;11.816;2022-09-09T02:39:56;13.20;;;7.90;;
68938;SDS011;59064;45.294;11.816;2022-09-09T02:42:22;14.50;;;7.40;;
68938;SDS011;59064;45.294;11.816;2022-09-09T02:44:49;12.10;;;7.00;;
68938;SDS011;59064;45.294;11.816;2022-09-09T02:47:25;12.40;;;7.30;;
68938;SDS011;59064;45.294;11.816;2022-09-09T02:50:16;15.00;;;8.40;;
68938;SDS011;59064;45.294;11.816;2022-09-09T02:55:29;10.40;;;6.30;;
68938;SDS011;59064;45.294;11.816;2022-09-09T02:57:57;12.10;;;6.90;;
68938;SDS011;59064;45.294;11.816;2022-09-09T03:00:27;9.10;;;5.70;;
68938;SDS011;59064;45.294;11.816;2022-09-09T03:02:54;11.20;;;5.50;;
68938;SDS011;59064;45.294;11.816;2022-09-09T03:05:20;12.30;;;6.10;;
68938;SDS011;59064;45.294;11.816;2022-09-09T03:07:47;13.30;;;6.30;;
68938;SDS011;59064;45.294;11.816;2022-09-09T03:10:13;9.10;;;5.20;;
68938;SDS011;59064;45.294;11.816;2022-09-09T03:12:39;9.50;;;5.70;;
68938;SDS011;59064;45.294;11.816;2022-09-09T03:15:05;16.50;;;5.00;;
68938;SDS011;59064;45.294;11.816;2022-09-09T03:17:32;9.30;;;5.30;;
68938;SDS011;59064;45.294;11.816;2022-09-09T03:19:57;10.30;;;5.90;;
68938;SDS011;59064;45.294;11.816;2022-09-09T03:22:24;7.90;;;5.30;;
68938;SDS011;59064;45.294;11.816;2022-09-09T03:24:51;6.90;;;4.50;;
68938;SDS011;59064;45.294;11.816;2022-09-09T03:27:17;8.40;;;5.10;;
68938;SDS011;59064;45.294;11.816;2022-09-09T03:29:45;9.70;;;5.10;;
68938;SDS011;59064;45.294;11.816;2022-09-09T03:32:11;7.90;;;4.60;;
68938;SDS011;59064;45.294;11.816;2022-09-09T03:34:38;11.70;;;5.30;;
68938;SDS011;59064;45.294;11.816;2022-09-09T03:37:07;10.00;;;4.80;;
68938;SDS011;59064;45.294;11.816;2022-09-09T03:39:32;8.70;;;4.90;;
68938;SDS011;59064;45.294;11.816;2022-09-09T03:41:58;12.00;;;5.30;;
68938;SDS011;59064;45.294;11.816;2022-09-09T03:44:24;9.10;;;6.00;;
68938;SDS011;59064;45.294;11.816;2022-09-09T03:46:49;9.70;;;4.90;;
68938;SDS011;59064;45.294;11.816;2022-09-09T03:49:15;10.00;;;5.20;;
68938;SDS011;59064;45.294;11.816;2022-09-09T03:51:42;11.90;;;5.30;;
68938;SDS011;59064;45.294;11.816;2022-09-09T03:54:07;11.50;;;5.40;;
68938;SDS011;59064;45.294;11.816;2022-09-09T03:56:36;8.80;;;5.40;;
68938;SDS011;59064;45.294;11.816;2022-09-09T03:59:02;11.80;;;5.90;;
68938;SDS011;59064;45.294;11.816;2022-09-09T04:01:29;10.00;;;6.00;;
68938;SDS011;59064;45.294;11.816;2022-09-09T04:03:55;9.10;;;5.40;;
68938;SDS011;59064;45.294;11.816;2022-09-09T04:06:23;10.10;;;5.60;;
68938;SDS011;59064;45.294;11.816;2022-09-09T04:08:50;9.90;;;6.00;;
68938;SDS011;59064;45.294;11.816;2022-09-09T04:11:17;8.80;;;5.40;;
68938;SDS011;59064;45.294;11.816;2022-09-09T04:13:43;8.20;;;5.30;;
68938;SDS011;59064;45.294;11.816;2022-09-09T04:16:10;9.50;;;5.20;;
68938;SDS011;59064;45.294;11.816;2022-09-09T04:18:38;10.10;;;6.10;;
68938;SDS011;59064;45.294;11.816;2022-09-09T04:21:04;11.00;;;5.70;;
68938;SDS011;59064;45.294;11.816;2022-09-09T04:23:32;8.30;;;5.30;;
68938;SDS011;59064;45.294;11.816;2022-09-09T04:26:00;10.90;;;5.90;;
68938;SDS011;59064;45.294;11.816;2022-09-09T04:28:29;8.70;;;5.20;;
68938;SDS011;59064;45.294;11.816;2022-09-09T04:30:57;11.30;;;5.40;;
68938;SDS011;59064;45.294;11.816;2022-09-09T04:33:29;7.80;;;4.80;;
68938;SDS011;59064;45.294;11.816;2022-09-09T04:35:56;11.40;;;4.70;;
68938;SDS011;59064;45.294;11.816;2022-09-09T04:38:22;10.40;;;5.40;;
68938;SDS011;59064;45.294;11.816;2022-09-09T04:40:49;9.70;;;5.60;;
68938;SDS011;59064;45.294;11.816;2022-09-09T04:43:17;8.80;;;5.20;;
68938;SDS011;59064;45.294;11.816;2022-09-09T04:45:47;10.40;;;5.10;;
68938;SDS011;59064;45.294;11.816;2022-09-09T04:48:14;11.50;;;4.90;;
68938;SDS011;59064;45.294;11.816;2022-09-09T04:50:39;9.40;;;4.40;;
68938;SDS011;59064;45.294;11.816;2022-09-09T04:53:06;8.10;;;4.80;;
68938;SDS011;59064;45.294;11.816;2022-09-09T04:55:32;9.70;;;4.20;;
68938;SDS011;59064;45.294;11.816;2022-09-09T04:58:06;9.00;;;5.40;;
68938;SDS011;59064;45.294;11.816;2022-09-09T05:00:34;9.60;;;4.90;;
68938;SDS011;59064;45.294;11.816;2022-09-09T05:03:04;10.10;;;5.00;;
68938;SDS011;59064;45.294;11.816;2022-09-09T05:05:32;9.00;;;4.60;;
68938;SDS011;59064;45.294;11.816;2022-09-09T05:08:06;10.40;;;5.20;;
68938;SDS011;59064;45.294;11.816;2022-09-09T05:10:34;6.30;;;3.50;;
68938;SDS011;59064;45.294;11.816;2022-09-09T05:13:02;7.30;;;3.30;;
68938;SDS011;59064;45.294;11.816;2022-09-09T05:15:30;8.80;;;4.30;;
68938;SDS011;59064;45.294;11.816;2022-09-09T05:18:00;10.10;;;4.80;;
68938;SDS011;59064;45.294;11.816;2022-09-09T05:20:27;7.20;;;4.30;;
68938;SDS011;59064;45.294;11.816;2022-09-09T05:22:54;10.40;;;4.30;;
68938;SDS011;59064;45.294;11.816;2022-09-09T05:25:21;10.20;;;4.30;;
68938;SDS011;59064;45.294;11.816;2022-09-09T05:27:48;7.20;;;3.60;;
68938;SDS011;59064;45.294;11.816;2022-09-09T05:30:14;8.40;;;3.20;;
68938;SDS011;59064;45.294;11.816;2022-09-09T05:32:41;8.80;;;4.10;;
68938;SDS011;59064;45.294;11.816;2022-09-09T05:35:06;12.90;;;4.20;;
68938;SDS011;59064;45.294;11.816;2022-09-09T05:37:32;7.80;;;4.10;;
68938;SDS011;59064;45.294;11.816;2022-09-09T05:39:58;13.40;;;4.40;;
68938;SDS011;59064;45.294;11.816;2022-09-09T05:42:24;7.10;;;4.00;;
68938;SDS011;59064;45.294;11.816;2022-09-09T05:44:49;7.70;;;3.50;;
68938;SDS011;59064;45.294;11.816;2022-09-09T05:47:16;9.30;;;4.10;;
68938;SDS011;59064;45.294;11.816;2022-09-09T05:49:42;8.00;;;4.10;;
68938;SDS011;59064;45.294;11.816;2022-09-09T05:52:08;9.50;;;3.90;;
68938;SDS011;59064;45.294;11.816;2022-09-09T05:54:35;7.40;;;3.40;;
68938;SDS011;59064;45.294;11.816;2022-09-09T05:57:02;9.50;;;3.50;;
68938;SDS011;59064;45.294;11.816;2022-09-09T05:59:28;6.90;;;3.80;;
68938;SDS011;59064;45.294;11.816;2022-09-09T06:01:54;6.50;;;3.80;;
68938;SDS011;59064;45.294;11.816;2022-09-09T06:04:20;7.40;;;3.60;;
68938;SDS011;59064;45.294;11.816;2022-09-09T06:06:47;7.70;;;3.80;;
68938;SDS011;59064;45.294;11.816;2022-09-09T06:09:14;6.40;;;3.30;;
68938;SDS011;59064;45.294;11.816;2022-09-09T06:11:40;8.10;;;3.60;;
68938;SDS011;59064;45.294;11.816;2022-09-09T06:14:07;8.20;;;4.30;;
68938;SDS011;59064;45.294;11.816;2022-09-09T06:16:33;7.70;;;3.80;;
68938;SDS011;59064;45.294;11.816;2022-09-09T06:19:00;9.50;;;3.70;;
68938;SDS011;59064;45.294;11.816;2022-09-09T06:21:29;8.80;;;3.70;;
68938;SDS011;59064;45.294;11.816;2022-09-09T06:23:56;8.10;;;3.90;;
68938;SDS011;59064;45.294;11.816;2022-09-09T06:26:24;8.80;;;4.30;;
68938;SDS011;59064;45.294;11.816;2022-09-09T06:28:53;8.90;;;4.20;;
68938;SDS011;59064;45.294;11.816;2022-09-09T06:31:22;8.60;;;4.40;;
68938;SDS011;59064;45.294;11.816;2022-09-09T06:33:50;7.30;;;4.30;;
68938;SDS011;59064;45.294;11.816;2022-09-09T06:36:22;9.50;;;4.70;;
68938;SDS011;59064;45.294;11.816;2022-09-09T06:38:48;8.10;;;4.30;;
68938;SDS011;59064;45.294;11.816;2022-09-09T06:41:16;9.20;;;4.40;;
68938;SDS011;59064;45.294;11.816;2022-09-09T06:43:45;8.80;;;4.10;;
68938;SDS011;59064;45.294;11.816;2022-09-09T06:46:13;7.00;;;4.00;;
68938;SDS011;59064;45.294;11.816;2022-09-09T06:48:41;9.60;;;4.60;;
68938;SDS011;59064;45.294;11.816;2022-09-09T06:51:11;9.60;;;4.80;;
68938;SDS011;59064;45.294;11.816;2022-09-09T06:53:40;9.60;;;4.60;;
68938;SDS011;59064;45.294;11.816;2022-09-09T06:58:45;10.60;;;4.10;;
68938;SDS011;59064;45.294;11.816;2022-09-09T07:01:13;9.00;;;4.50;;
68938;SDS011;59064;45.294;11.816;2022-09-09T07:03:42;9.70;;;4.30;;
68938;SDS011;59064;45.294;11.816;2022-09-09T07:06:25;9.40;;;4.40;;
68938;SDS011;59064;45.294;11.816;2022-09-09T07:08:57;8.30;;;4.50;;
68938;SDS011;59064;45.294;11.816;2022-09-09T07:11:30;9.10;;;4.70;;
68938;SDS011;59064;45.294;11.816;2022-09-09T07:14:19;9.40;;;4.50;;
68938;SDS011;59064;45.294;11.816;2022-09-09T07:16:46;8.50;;;4.10;;
68938;SDS011;59064;45.294;11.816;2022-09-09T07:19:12;8.90;;;4.60;;
68938;SDS011;59064;45.294;11.816;2022-09-09T07:21:39;7.90;;;4.60;;
68938;SDS011;59064;45.294;11.816;2022-09-09T07:24:05;8.60;;;3.70;;
68938;SDS011;59064;45.294;11.816;2022-09-09T07:26:35;9.30;;;4.50;;
68938;SDS011;59064;45.294;11.816;2022-09-09T07:29:02;7.30;;;3.40;;
68938;SDS011;59064;45.294;11.816;2022-09-09T07:31:31;9.40;;;4.30;;
68938;SDS011;59064;45.294;11.816;2022-09-09T07:33:59;7.60;;;3.60;;
68938;SDS011;59064;45.294;11.816;2022-09-09T07:36:44;7.90;;;3.90;;
68938;SDS011;59064;45.294;11.816;2022-09-09T07:39:11;14.50;;;4.50;;
68938;SDS011;59064;45.294;11.816;2022-09-09T07:41:48;8.60;;;4.10;;
68938;SDS011;59064;45.294;11.816;2022-09-09T07:44:19;10.40;;;3.90;;
68938;SDS011;59064;45.294;11.816;2022-09-09T07:46:47;7.50;;;4.00;;
68938;SDS011;59064;45.294;11.816;2022-09-09T07:49:13;8.30;;;4.10;;
68938;SDS011;59064;45.294;11.816;2022-09-09T07:51:45;10.50;;;4.80;;
68938;SDS011;59064;45.294;11.816;2022-09-09T07:54:13;9.40;;;4.40;;
68938;SDS011;59064;45.294;11.816;2022-09-09T07:56:41;9.90;;;4.40;;
68938;SDS011;59064;45.294;11.816;2022-09-09T07:59:08;8.40;;;3.50;;
68938;SDS011;59064;45.294;11.816;2022-09-09T08:01:38;8.70;;;3.90;;
68938;SDS011;59064;45.294;11.816;2022-09-09T08:04:14;8.30;;;3.50;;
68938;SDS011;59064;45.294;11.816;2022-09-09T08:06:50;9.50;;;3.70;;
68938;SDS011;59064;45.294;11.816;2022-09-09T08:09:18;9.90;;;3.40;;
68938;SDS011;59064;45.294;11.816;2022-09-09T08:11:44;10.00;;;3.80;;
68938;SDS011;59064;45.294;11.816;2022-09-09T08:14:11;6.40;;;3.50;;
68938;SDS011;59064;45.294;11.816;2022-09-09T08:16:48;11.10;;;4.10;;
68938;SDS011;59064;45.294;11.816;2022-09-09T08:19:34;10.20;;;4.20;;
68938;SDS011;59064;45.294;11.816;2022-09-09T08:22:01;10.50;;;4.10;;
68938;SDS011;59064;45.294;11.816;2022-09-09T08:24:28;7.20;;;3.50;;
68938;SDS011;59064;45.294;11.816;2022-09-09T08:26:54;13.70;;;3.60;;
68938;SDS011;59064;45.294;11.816;2022-09-09T08:29:22;9.40;;;3.90;;
68938;SDS011;59064;45.294;11.816;2022-09-09T08:31:56;8.60;;;3.70;;
68938;SDS011;59064;45.294;11.816;2022-09-09T08:34:24;8.20;;;3.30;;
68938;SDS011;59064;45.294;11.816;2022-09-09T08:36:52;11.20;;;3.50;;
68938;SDS011;59064;45.294;11.816;2022-09-09T08:39:20;9.80;;;3.90;;
68938;SDS011;59064;45.294;11.816;2022-09-09T08:44:54;11.10;;;3.00;;
68938;SDS011;59064;45.294;11.816;2022-09-09T08:47:58;8.60;;;3.40;;
68938;SDS011;59064;45.294;11.816;2022-09-09T08:50:37;9.80;;;3.60;;
68938;SDS011;59064;45.294;11.816;2022-09-09T08:53:26;8.80;;;3.20;;
68938;SDS011;59064;45.294;11.816;2022-09-09T08:55:57;6.60;;;2.70;;
68938;SDS011;59064;45.294;11.816;2022-09-09T08:58:30;6.70;;;3.00;;
68938;SDS011;59064;45.294;11.816;2022-09-09T09:06:31;7.30;;;3.30;;
68938;SDS011;59064;45.294;11.816;2022-09-09T09:09:32;7.70;;;3.10;;
68938;SDS011;59064;45.294;11.816;2022-09-09T09:12:22;6.80;;;2.90;;
68938;SDS011;59064;45.294;11.816;2022-09-09T09:14:50;10.60;;;4.00;;
68938;SDS011;59064;45.294;11.816;2022-09-09T09:17:19;8.00;;;3.60;;
68938;SDS011;59064;45.294;11.816;2022-09-09T09:19:47;10.20;;;3.70;;
68938;SDS011;59064;45.294;11.816;2022-09-09T09:22:32;12.70;;;3.70;;
68938;SDS011;59064;45.294;11.816;2022-09-09T09:25:22;11.00;;;3.60;;
68938;SDS011;59064;45.294;11.816;2022-09-09T09:30:34;9.60;;;3.70;;
68938;SDS011;59064;45.294;11.816;2022-09-09T09:33:25;7.30;;;3.50;;
68938;SDS011;59064;45.294;11.816;2022-09-09T09:36:09;14.50;;;3.90;;
68938;SDS011;59064;45.294;11.816;2022-09-09T09:38:36;7.00;;;3.00;;
68938;SDS011;59064;45.294;11.816;2022-09-09T09:41:02;7.40;;;3.00;;
68938;SDS011;59064;45.294;11.816;2022-09-09T09:43:39;10.90;;;3.90;;
68938;SDS011;59064;45.294;11.816;2022-09-09T09:46:21;9.60;;;3.50;;
68938;SDS011;59064;45.294;11.816;2022-09-09T09:51:24;10.50;;;3.40;;
68938;SDS011;59064;45.294;11.816;2022-09-09T09:53:51;9.30;;;3.70;;
68938;SDS011;59064;45.294;11.816;2022-09-09T09:56:26;11.50;;;4.10;;
68938;SDS011;59064;45.294;11.816;2022-09-09T09:58:57;7.20;;;2.80;;
68938;SDS011;59064;45.294;11.816;2022-09-09T10:01:28;5.90;;;2.80;;
68938;SDS011;59064;45.294;11.816;2022-09-09T10:04:12;7.60;;;3.20;;
68938;SDS011;59064;45.294;11.816;2022-09-09T10:06:42;9.40;;;3.20;;
68938;SDS011;59064;45.294;11.816;2022-09-09T10:09:27;8.40;;;3.90;;
68938;SDS011;59064;45.294;11.816;2022-09-09T10:12:23;7.90;;;4.00;;
68938;SDS011;59064;45.294;11.816;2022-09-09T10:15:07;6.90;;;3.60;;
68938;SDS011;59064;45.294;11.816;2022-09-09T10:29:35;6.60;;;3.40;;
68938;SDS011;59064;45.294;11.816;2022-09-09T10:35:36;9.60;;;3.90;;
68938;SDS011;59064;45.294;11.816;2022-09-09T10:43:43;7.00;;;3.30;;
68938;SDS011;59064;45.294;11.816;2022-09-09T10:52:44;8.10;;;3.80;;
68938;SDS011;59064;45.294;11.816;2022-09-09T10:55:20;8.10;;;4.00;;
68938;SDS011;59064;45.294;11.816;2022-09-09T10:57:57;8.90;;;3.60;;
68938;SDS011;59064;45.294;11.816;2022-09-09T11:00:31;7.50;;;3.50;;
68938;SDS011;59064;45.294;11.816;2022-09-09T11:03:30;10.60;;;4.00;;
68938;SDS011;59064;45.294;11.816;2022-09-09T11:06:19;8.60;;;3.80;;
68938;SDS011;59064;45.294;11.816;2022-09-09T11:08:50;5.40;;;2.70;;
68938;SDS011;59064;45.294;11.816;2022-09-09T11:11:29;8.80;;;3.30;;
68938;SDS011;59064;45.294;11.816;2022-09-09T11:17:26;6.40;;;2.60;;
68938;SDS011;59064;45.294;11.816;2022-09-09T11:19:59;5.80;;;2.40;;
68938;SDS011;59064;45.294;11.816;2022-09-09T11:22:32;6.00;;;2.20;;
68938;SDS011;59064;45.294;11.816;2022-09-09T11:42:46;3.70;;;1.40;;
68938;SDS011;59064;45.294;11.816;2022-09-09T11:45:24;4.50;;;1.20;;
68938;SDS011;59064;45.294;11.816;2022-09-09T11:47:58;2.50;;;1.10;;
68938;SDS011;59064;45.294;11.816;2022-09-09T11:53:02;6.90;;;1.80;;
68938;SDS011;59064;45.294;11.816;2022-09-09T11:59:03;3.10;;;1.20;;
68938;SDS011;59064;45.294;11.816;2022-09-09T12:01:42;3.10;;;1.10;;
68938;SDS011;59064;45.294;11.816;2022-09-09T12:06:54;4.80;;;1.10;;
68938;SDS011;59064;45.294;11.816;2022-09-09T12:12:27;4.80;;;1.50;;
68938;SDS011;59064;45.294;11.816;2022-09-09T12:17:49;4.50;;;1.50;;
68938;SDS011;59064;45.294;11.816;2022-09-09T12:28:23;4.60;;;1.70;;
68938;SDS011;59064;45.294;11.816;2022-09-09T12:31:03;6.40;;;2.00;;
68938;SDS011;59064;45.294;11.816;2022-09-09T12:33:36;7.10;;;2.00;;
68938;SDS011;59064;45.294;11.816;2022-09-09T12:36:43;4.60;;;2.00;;
68938;SDS011;59064;45.294;11.816;2022-09-09T12:39:42;5.30;;;2.10;;
68938;SDS011;59064;45.294;11.816;2022-09-09T12:42:17;5.90;;;1.80;;
68938;SDS011;59064;45.294;11.816;2022-09-09T12:45:15;4.30;;;1.70;;
68938;SDS011;59064;45.294;11.816;2022-09-09T12:47:54;7.60;;;2.20;;
68938;SDS011;59064;45.294;11.816;2022-09-09T12:50:37;5.50;;;2.00;;
68938;SDS011;59064;45.294;11.816;2022-09-09T12:53:29;6.10;;;2.10;;
68938;SDS011;59064;45.294;11.816;2022-09-09T12:55:58;5.10;;;1.80;;
68938;SDS011;59064;45.294;11.816;2022-09-09T12:58:28;5.50;;;2.00;;
68938;SDS011;59064;45.294;11.816;2022-09-09T13:00:59;8.80;;;2.60;;
68938;SDS011;59064;45.294;11.816;2022-09-09T13:03:26;6.40;;;2.40;;
68938;SDS011;59064;45.294;11.816;2022-09-09T13:05:53;6.90;;;2.30;;
68938;SDS011;59064;45.294;11.816;2022-09-09T13:08:25;9.10;;;2.40;;
68938;SDS011;59064;45.294;11.816;2022-09-09T13:11:06;5.90;;;2.50;;
68938;SDS011;59064;45.294;11.816;2022-09-09T13:13:36;7.00;;;2.40;;
68938;SDS011;59064;45.294;11.816;2022-09-09T13:16:19;4.50;;;1.70;;
68938;SDS011;59064;45.294;11.816;2022-09-09T13:19:19;3.80;;;1.60;;
68938;SDS011;59064;45.294;11.816;2022-09-09T13:21:46;6.30;;;1.80;;
68938;SDS011;59064;45.294;11.816;2022-09-09T13:24:31;3.50;;;1.60;;
68938;SDS011;59064;45.294;11.816;2022-09-09T13:27:00;5.20;;;2.00;;
68938;SDS011;59064;45.294;11.816;2022-09-09T13:29:28;4.30;;;1.70;;
68938;SDS011;59064;45.294;11.816;2022-09-09T13:32:15;5.90;;;2.00;;
68938;SDS011;59064;45.294;11.816;2022-09-09T13:34:51;5.30;;;1.70;;
68938;SDS011;59064;45.294;11.816;2022-09-09T13:37:37;4.40;;;1.50;;
68938;SDS011;59064;45.294;11.816;2022-09-09T13:40:06;5.50;;;1.50;;
68938;SDS011;59064;45.294;11.816;2022-09-09T13:42:44;3.70;;;1.40;;
68938;SDS011;59064;45.294;11.816;2022-09-09T13:45:24;4.00;;;1.40;;
68938;SDS011;59064;45.294;11.816;2022-09-09T13:47:53;5.10;;;1.50;;
68938;SDS011;59064;45.294;11.816;2022-09-09T13:50:30;4.10;;;1.30;;
68938;SDS011;59064;45.294;11.816;2022-09-09T13:52:58;5.80;;;1.60;;
68938;SDS011;59064;45.294;11.816;2022-09-09T13:55:26;5.70;;;1.60;;
68938;SDS011;59064;45.294;11.816;2022-09-09T13:57:57;4.00;;;1.30;;
68938;SDS011;59064;45.294;11.816;2022-09-09T14:00:24;3.90;;;1.40;;
68938;SDS011;59064;45.294;11.816;2022-09-09T14:02:50;2.70;;;1.30;;
68938;SDS011;59064;45.294;11.816;2022-09-09T14:05:17;4.70;;;1.30;;
68938;SDS011;59064;45.294;11.816;2022-09-09T14:07:44;3.90;;;1.20;;
68938;SDS011;59064;45.294;11.816;2022-09-09T14:10:11;3.00;;;1.10;;
68938;SDS011;59064;45.294;11.816;2022-09-09T14:12:38;4.50;;;1.10;;
68938;SDS011;59064;45.294;11.816;2022-09-09T14:15:05;4.50;;;1.20;;
68938;SDS011;59064;45.294;11.816;2022-09-09T14:17:32;4.90;;;1.00;;
68938;SDS011;59064;45.294;11.816;2022-09-09T14:19:59;4.50;;;0.90;;
68938;SDS011;59064;45.294;11.816;2022-09-09T14:22:25;3.30;;;1.00;;
68938;SDS011;59064;45.294;11.816;2022-09-09T14:24:51;3.20;;;1.00;;
68938;SDS011;59064;45.294;11.816;2022-09-09T14:27:17;4.60;;;1.40;;
68938;SDS011;59064;45.294;11.816;2022-09-09T14:29:44;5.70;;;1.60;;
68938;SDS011;59064;45.294;11.816;2022-09-09T14:32:10;3.30;;;1.30;;
68938;SDS011;59064;45.294;11.816;2022-09-09T14:34:37;3.90;;;1.60;;
68938;SDS011;59064;45.294;11.816;2022-09-09T14:37:03;3.40;;;1.60;;
68938;SDS011;59064;45.294;11.816;2022-09-09T14:39:29;5.50;;;1.70;;
68938;SDS011;59064;45.294;11.816;2022-09-09T14:41:55;4.00;;;2.00;;
68938;SDS011;59064;45.294;11.816;2022-09-09T14:44:20;6.70;;;1.80;;
68938;SDS011;59064;45.294;11.816;2022-09-09T14:46:46;4.50;;;2.20;;
68938;SDS011;59064;45.294;11.816;2022-09-09T14:49:15;6.50;;;2.00;;
68938;SDS011;59064;45.294;11.816;2022-09-09T14:51:41;5.70;;;1.90;;
68938;SDS011;59064;45.294;11.816;2022-09-09T14:54:07;4.80;;;1.60;;
68938;SDS011;59064;45.294;11.816;2022-09-09T14:56:34;3.70;;;1.80;;
68938;SDS011;59064;45.294;11.816;2022-09-09T14:59:01;4.00;;;1.90;;
68938;SDS011;59064;45.294;11.816;2022-09-09T15:01:27;3.80;;;1.90;;
68938;SDS011;59064;45.294;11.816;2022-09-09T15:03:56;4.10;;;1.60;;
68938;SDS011;59064;45.294;11.816;2022-09-09T15:06:24;5.60;;;1.80;;
68938;SDS011;59064;45.294;11.816;2022-09-09T15:08:52;5.70;;;2.10;;
68938;SDS011;59064;45.294;11.816;2022-09-09T15:11:19;4.60;;;1.90;;
68938;SDS011;59064;45.294;11.816;2022-09-09T15:13:46;5.30;;;2.10;;
68938;SDS011;59064;45.294;11.816;2022-09-09T15:16:17;4.10;;;1.60;;
68938;SDS011;59064;45.294;11.816;2022-09-09T15:18:45;4.80;;;1.80;;
68938;SDS011;59064;45.294;11.816;2022-09-09T15:21:15;6.20;;;1.80;;
68938;SDS011;59064;45.294;11.816;2022-09-09T15:23:44;4.20;;;1.60;;
68938;SDS011;59064;45.294;11.816;2022-09-09T15:26:10;4.90;;;1.70;;
68938;SDS011;59064;45.294;11.816;2022-09-09T15:28:39;4.80;;;1.60;;
68938;SDS011;59064;45.294;11.816;2022-09-09T15:31:20;6.20;;;1.90;;
68938;SDS011;59064;45.294;11.816;2022-09-09T15:33:58;3.00;;;1.30;;
68938;SDS011;59064;45.294;11.816;2022-09-09T15:38:54;4.30;;;1.60;;
68938;SDS011;59064;45.294;11.816;2022-09-09T15:41:21;4.20;;;1.40;;
68938;SDS011;59064;45.294;11.816;2022-09-09T15:43:49;4.00;;;1.50;;
68938;SDS011;59064;45.294;11.816;2022-09-09T15:48:46;4.20;;;1.90;;
68938;SDS011;59064;45.294;11.816;2022-09-09T15:51:13;3.80;;;1.50;;
68938;SDS011;59064;45.294;11.816;2022-09-09T15:53:39;5.40;;;1.60;;
68938;SDS011;59064;45.294;11.816;2022-09-09T15:56:08;4.00;;;1.90;;
68938;SDS011;59064;45.294;11.816;2022-09-09T15:58:35;6.00;;;1.70;;
68938;SDS011;59064;45.294;11.816;2022-09-09T16:01:08;4.40;;;1.50;;
68938;SDS011;59064;45.294;11.816;2022-09-09T16:03:36;4.00;;;1.70;;
68938;SDS011;59064;45.294;11.816;2022-09-09T16:06:03;4.30;;;1.50;;
68938;SDS011;59064;45.294;11.816;2022-09-09T16:08:34;3.80;;;1.50;;
68938;SDS011;59064;45.294;11.816;2022-09-09T16:11:05;4.40;;;1.60;;
68938;SDS011;59064;45.294;11.816;2022-09-09T16:13:39;3.60;;;1.50;;
68938;SDS011;59064;45.294;11.816;2022-09-09T16:16:05;5.80;;;1.40;;
68938;SDS011;59064;45.294;11.816;2022-09-09T16:18:45;3.10;;;1.30;;
68938;SDS011;59064;45.294;11.816;2022-09-09T16:21:17;3.50;;;1.30;;
68938;SDS011;59064;45.294;11.816;2022-09-09T16:23:45;3.20;;;1.20;;
68938;SDS011;59064;45.294;11.816;2022-09-09T16:26:12;5.90;;;1.40;;
68938;SDS011;59064;45.294;11.816;2022-09-09T16:28:39;5.40;;;1.30;;
68938;SDS011;59064;45.294;11.816;2022-09-09T16:31:07;4.90;;;1.60;;
68938;SDS011;59064;45.294;11.816;2022-09-09T16:33:36;4.70;;;1.20;;
68938;SDS011;59064;45.294;11.816;2022-09-09T16:36:14;4.20;;;1.30;;
68938;SDS011;59064;45.294;11.816;2022-09-09T16:38:42;3.30;;;1.40;;
68938;SDS011;59064;45.294;11.816;2022-09-09T16:41:13;5.10;;;1.30;;
68938;SDS011;59064;45.294;11.816;2022-09-09T16:43:40;5.40;;;1.40;;
68938;SDS011;59064;45.294;11.816;2022-09-09T16:46:15;5.40;;;2.20;;
68938;SDS011;59064;45.294;11.816;2022-09-09T16:48:44;4.60;;;2.00;;
68938;SDS011;59064;45.294;11.816;2022-09-09T16:51:15;6.40;;;2.30;;
68938;SDS011;59064;45.294;11.816;2022-09-09T16:53:43;6.50;;;2.20;;
68938;SDS011;59064;45.294;11.816;2022-09-09T16:56:12;6.30;;;1.80;;
68938;SDS011;59064;45.294;11.816;2022-09-09T16:58:40;6.10;;;1.90;;
68938;SDS011;59064;45.294;11.816;2022-09-09T17:01:08;3.70;;;1.40;;
68938;SDS011;59064;45.294;11.816;2022-09-09T17:03:35;4.10;;;1.60;;
68938;SDS011;59064;45.294;11.816;2022-09-09T17:06:02;4.70;;;1.90;;
68938;SDS011;59064;45.294;11.816;2022-09-09T17:08:33;5.50;;;1.90;;
68938;SDS011;59064;45.294;11.816;2022-09-09T17:10:59;5.20;;;1.90;;
68938;SDS011;59064;45.294;11.816;2022-09-09T17:13:24;4.40;;;1.70;;